Time;durP1;ratioP1;P1;durP2;ratioP2;P2;SDS_P1;SDS_P2;PMS_P1;PMS_P2;Temp;Humidity;BMP_temperature;BMP_pressure;BME280_temperature;BME280_humidity;BME280_pressure;Samples;Min_cycle;Max_cycle;Signal;HPM_P1;HPM_P2
2024/02/16 00:01:01;;;;;;;4.45;4.07;;;22.70;46.20;;;;;;4996191;28;20058;-34
2024/02/16 00:03:28;;;;;;;4.97;4.53;;;22.70;46.20;;;;;;4999239;28;20041;-33
2024/02/16 00:05:57;;;;;;;4.83;4.43;;;22.70;46.20;;;;;;5000051;28;20054;-38
2024/02/16 00:08:23;;;;;;;6.50;5.90;;;22.70;46.20;;;;;;5021584;28;20293;-34
2024/02/16 00:10:49;;;;;;;31.42;21.83;;;22.70;46.20;;;;;;5062293;28;20025;-35
2024/02/16 00:13:15;;;;;;;49.33;35.83;;;22.70;46.30;;;;;;5059134;28;20036;-34
2024/02/16 00:15:41;;;;;;;51.80;36.22;;;22.70;46.30;;;;;;5062448;28;20025;-34
2024/02/16 00:18:07;;;;;;;84.30;53.85;;;22.70;46.30;;;;;;5061657;28;20524;-33
2024/02/16 00:20:34;;;;;;;106.93;68.88;;;22.70;46.30;;;;;;5061715;28;20753;-33
2024/02/16 00:23:00;;;;;;;111.10;72.72;;;22.70;46.30;;;;;;5054414;28;20110;-33
2024/02/16 00:25:26;;;;;;;112.32;73.50;;;22.70;46.40;;;;;;5058696;28;20036;-34
2024/02/16 00:27:55;;;;;;;112.97;74.22;;;22.70;47.00;;;;;;5062076;28;20055;-34
2024/02/16 00:30:22;;;;;;;115.13;75.53;;;22.70;46.40;;;;;;5052728;28;20033;-34
2024/02/16 00:32:48;;;;;;;115.60;74.00;;;22.70;46.40;;;;;;5062183;28;20043;-34
2024/02/16 00:35:19;;;;;;;106.55;69.40;;;22.70;46.40;;;;;;5061819;28;20527;-34
2024/02/16 00:37:48;;;;;;;91.32;58.00;;;22.60;46.30;;;;;;5059961;28;20051;-34
2024/02/16 00:40:14;;;;;;;78.43;52.05;;;22.60;46.40;;;;;;5061082;28;20608;-34
2024/02/16 00:42:40;;;;;;;75.35;49.85;;;22.70;46.60;;;;;;5047081;28;20029;-34
2024/02/16 00:45:08;;;;;;;74.47;48.92;;;22.70;46.50;;;;;;5060099;28;20449;-34
2024/02/16 00:47:34;;;;;;;;;;;22.60;46.50;;;;;;5037382;28;20078;-33
2024/02/16 00:50:00;;;;;;;72.80;47.13;;;22.60;46.50;;;;;;5060478;28;19912;-34
2024/02/16 00:52:26;;;;;;;69.75;45.55;;;22.60;46.40;;;;;;5060577;28;20052;-34
2024/02/16 00:54:52;;;;;;;67.22;44.85;;;22.60;46.40;;;;;;5060701;28;20033;-34
2024/02/16 00:57:18;;;;;;;63.72;42.20;;;22.60;46.40;;;;;;5060790;28;20028;-34
2024/02/16 00:59:44;;;;;;;49.08;34.92;;;22.60;46.40;;;;;;5059590;28;20028;-34
2024/02/16 01:02:11;;;;;;;50.65;33.70;;;22.60;46.60;;;;;;5053443;28;20059;-34
2024/02/16 01:04:37;;;;;;;47.17;32.45;;;22.60;46.60;;;;;;5063091;28;20021;-34
2024/02/16 01:07:03;;;;;;;48.90;32.35;;;22.60;46.50;;;;;;5081212;28;20064;-33
2024/02/16 01:09:29;;;;;;;49.85;30.98;;;22.60;46.50;;;;;;5081922;28;20027;-34
2024/02/16 01:11:56;;;;;;;43.17;30.27;;;22.60;46.50;;;;;;5072961;28;20063;-34
2024/02/16 01:14:22;;;;;;;45.40;30.65;;;22.60;46.50;;;;;;5081910;28;20024;-34
2024/02/16 01:16:48;;;;;;;38.13;27.63;;;22.60;46.40;;;;;;5078393;28;20036;-34
2024/02/16 01:19:14;;;;;;;33.15;22.95;;;22.60;46.40;;;;;;5080198;28;20025;-34
2024/02/16 01:21:41;;;;;;;30.90;22.73;;;22.60;46.60;;;;;;5076112;28;20028;-34
2024/02/16 01:24:08;;;;;;;32.35;22.75;;;22.60;46.70;;;;;;5071269;28;20044;-34
2024/02/16 01:26:34;;;;;;;28.95;20.73;;;22.60;46.70;;;;;;5081379;28;20040;-34
2024/02/16 01:29:02;;;;;;;29.70;21.92;;;22.60;46.70;;;;;;5072805;28;20035;-34
2024/02/16 01:31:27;;;;;;;;;;;22.60;46.70;;;;;;5075164;28;20040;-33
2024/02/16 01:33:54;;;;;;;29.80;21.05;;;22.60;46.70;;;;;;5074767;28;19912;-34
2024/02/16 01:36:20;;;;;;;28.85;21.05;;;22.50;46.70;;;;;;5082819;28;20024;-33
2024/02/16 01:38:46;;;;;;;25.10;19.27;;;22.50;46.70;;;;;;5083933;28;20052;-35
2024/02/16 01:41:14;;;;;;;25.73;17.83;;;22.50;46.80;;;;;;5084701;28;20025;-34
2024/02/16 01:43:40;;;;;;;19.25;15.25;;;22.50;46.90;;;;;;5078904;28;20027;-34
2024/02/16 01:46:07;;;;;;;21.23;15.50;;;22.60;47.00;;;;;;5082363;28;20036;-33
2024/02/16 01:48:33;;;;;;;22.02;15.98;;;22.50;46.90;;;;;;5079773;28;20047;-37
2024/02/16 01:51:01;;;;;;;22.42;15.88;;;22.50;46.90;;;;;;5058447;28;20029;-34
2024/02/16 01:53:27;;;;;;;23.10;16.35;;;22.50;46.80;;;;;;5085067;28;20054;-34
2024/02/16 01:55:53;;;;;;;21.83;15.70;;;22.50;46.80;;;;;;5076024;28;20028;-34
2024/02/16 01:58:19;;;;;;;22.63;15.38;;;22.50;46.70;;;;;;5079008;28;20033;-33
2024/02/16 02:00:46;;;;;;;18.20;13.95;;;22.50;46.70;;;;;;5074945;28;20016;-34
2024/02/16 02:03:13;;;;;;;16.30;12.77;;;22.50;46.90;;;;;;5072137;28;20036;-34
2024/02/16 02:05:45;;;;;;;15.52;12.25;;;22.50;46.90;;;;;;5069117;28;20049;-34
2024/02/16 02:08:12;;;;;;;16.83;13.18;;;22.50;46.80;;;;;;5061166;28;20036;-34
2024/02/16 02:10:38;;;;;;;17.55;12.15;;;22.50;46.80;;;;;;5059339;28;20025;-34
2024/02/16 02:13:05;;;;;;;16.38;12.77;;;22.50;46.70;;;;;;5063552;28;20088;-34
2024/02/16 02:15:31;;;;;;;15.05;11.82;;;22.50;46.70;;;;;;5059597;28;20118;-34
2024/02/16 02:18:00;;;;;;;14.95;11.25;;;22.50;46.60;;;;;;5056505;28;20037;-34
2024/02/16 02:20:26;;;;;;;12.93;10.15;;;22.50;46.70;;;;;;5055021;28;20047;-33
2024/02/16 02:22:53;;;;;;;11.98;10.27;;;22.50;46.80;;;;;;5064062;28;20032;-34
2024/02/16 02:25:19;;;;;;;14.33;11.20;;;22.50;46.80;;;;;;5063858;28;20145;-33
2024/02/16 02:27:46;;;;;;;11.60;10.07;;;22.50;46.80;;;;;;5060958;28;20418;-38
2024/02/16 02:30:12;;;;;;;11.95;10.13;;;22.50;46.70;;;;;;5041460;28;20367;-34
2024/02/16 02:32:39;;;;;;;11.20;9.70;;;22.40;46.50;;;;;;5060683;28;20037;-33
2024/02/16 02:35:08;;;;;;;11.73;9.57;;;22.40;46.50;;;;;;5061533;28;20022;-34
2024/02/16 02:37:34;;;;;;;9.75;8.57;;;22.40;46.50;;;;;;5061136;28;20035;-33
2024/02/16 02:40:00;;;;;;;11.43;8.93;;;22.50;46.70;;;;;;5059679;28;20546;-33
2024/02/16 02:42:28;;;;;;;9.40;8.40;;;22.50;46.70;;;;;;5063631;28;20035;-34
2024/02/16 02:44:53;;;;;;;;;;;22.50;46.70;;;;;;5055720;28;20029;-43
2024/02/16 02:47:20;;;;;;;9.23;8.30;;;22.50;46.70;;;;;;5060838;28;19952;-33
2024/02/16 02:49:46;;;;;;;11.30;8.55;;;22.40;46.50;;;;;;5063150;28;20029;-34
2024/02/16 02:52:12;;;;;;;9.40;8.02;;;22.40;46.40;;;;;;5059568;28;20064;-33
2024/02/16 02:54:38;;;;;;;9.93;8.20;;;22.40;46.50;;;;;;5063687;28;20679;-34
2024/02/16 02:57:04;;;;;;;8.30;7.45;;;22.40;46.70;;;;;;5056667;28;20037;-34
2024/02/16 02:59:31;;;;;;;8.23;7.43;;;22.40;46.70;;;;;;5057512;28;20024;-33
2024/02/16 03:01:57;;;;;;;7.88;7.07;;;22.40;46.70;;;;;;5062677;28;20044;-34
2024/02/16 03:04:23;;;;;;;8.75;7.63;;;22.40;46.60;;;;;;5060007;28;20040;-33
2024/02/16 03:06:52;;;;;;;8.52;7.47;;;22.40;46.50;;;;;;5074668;28;20048;-33
2024/02/16 03:09:18;;;;;;;7.63;6.82;;;22.40;46.40;;;;;;5082796;28;20016;-33
2024/02/16 03:11:44;;;;;;;7.43;6.63;;;22.40;46.50;;;;;;5081217;28;20048;-33
2024/02/16 03:14:10;;;;;;;7.68;6.88;;;22.40;46.70;;;;;;5080155;28;20057;-33
2024/02/16 03:16:37;;;;;;;7.60;6.68;;;22.40;46.70;;;;;;5080469;28;20025;-33
2024/02/16 03:19:05;;;;;;;7.25;6.50;;;22.40;46.70;;;;;;5077305;28;20031;-33
2024/02/16 03:21:32;;;;;;;8.10;6.60;;;22.40;46.60;;;;;;5060236;28;20037;-33
2024/02/16 03:23:58;;;;;;;8.63;6.82;;;22.40;46.60;;;;;;5077197;28;20568;-33
2024/02/16 03:26:24;;;;;;;7.18;6.47;;;22.40;46.50;;;;;;5080032;28;20043;-33
2024/02/16 03:28:51;;;;;;;6.88;6.25;;;22.30;46.60;;;;;;5077958;28;20362;-33
2024/02/16 03:31:20;;;;;;;6.95;6.25;;;22.40;46.80;;;;;;5073219;28;20032;-33
2024/02/16 03:33:47;;;;;;;5.95;5.43;;;22.40;46.80;;;;;;5082686;28;20020;-33
2024/02/16 03:36:14;;;;;;;6.80;6.07;;;22.40;46.70;;;;;;5074495;28;20049;-33
2024/02/16 03:38:47;;;;;;;6.50;5.82;;;22.40;46.60;;;;;;5076466;28;20588;-38
2024/02/16 03:41:14;;;;;;;6.53;5.80;;;22.40;46.60;;;;;;5073644;28;20568;-33
2024/02/16 03:43:41;;;;;;;6.18;5.57;;;22.30;46.50;;;;;;5080294;28;20079;-33
2024/02/16 03:46:27;;;;;;;5.97;5.40;;;22.30;46.60;;;;;;4981118;28;20031;-33
2024/02/16 03:48:53;;;;;;;7.05;5.95;;;22.40;46.90;;;;;;4981132;28;20125;-33
2024/02/16 03:51:19;;;;;;;6.18;5.57;;;22.40;46.80;;;;;;4981840;28;20042;-34
2024/02/16 03:53:46;;;;;;;6.68;6.03;;;22.40;46.70;;;;;;4981280;28;20531;-33
2024/02/16 03:56:18;;;;;;;6.45;5.80;;;22.30;46.60;;;;;;4979945;28;20428;-33
2024/02/16 03:58:44;;;;;;;5.72;5.22;;;22.30;46.50;;;;;;4981544;28;20066;-33
2024/02/16 04:01:10;;;;;;;6.45;5.68;;;22.30;46.60;;;;;;4981236;28;20026;-34
2024/02/16 04:03:36;;;;;;;6.18;5.57;;;22.30;46.70;;;;;;4981119;28;20035;-33
2024/02/16 04:06:04;;;;;;;6.47;5.38;;;22.40;46.90;;;;;;4981238;28;20051;-33
2024/02/16 04:08:30;;;;;;;6.10;5.50;;;22.40;46.80;;;;;;4981456;28;20023;-33
2024/02/16 04:10:57;;;;;;;5.78;5.28;;;22.30;46.60;;;;;;4980127;28;20047;-34
2024/02/16 04:13:24;;;;;;;6.35;5.75;;;22.30;46.60;;;;;;4981169;28;20058;-33
2024/02/16 04:15:50;;;;;;;5.93;5.32;;;22.30;46.50;;;;;;4980759;28;20045;-33
2024/02/16 04:18:16;;;;;;;6.93;5.50;;;22.30;46.60;;;;;;4980973;28;20096;-33
2024/02/16 04:20:42;;;;;;;5.68;5.18;;;22.30;46.70;;;;;;4980771;28;20035;-33
2024/02/16 04:23:08;;;;;;;7.03;5.65;;;22.30;46.90;;;;;;5007098;28;20854;-33
2024/02/16 04:25:35;;;;;;;6.05;5.43;;;22.30;46.80;;;;;;5052582;28;20097;-33
2024/02/16 04:28:01;;;;;;;5.70;5.15;;;22.30;46.70;;;;;;5061609;28;20062;-33
2024/02/16 04:30:27;;;;;;;6.40;5.80;;;22.30;46.60;;;;;;5060592;28;20039;-33
2024/02/16 04:32:53;;;;;;;5.90;5.07;;;22.30;46.50;;;;;;5061536;28;20045;-33
2024/02/16 04:35:19;;;;;;;5.28;4.80;;;22.30;46.70;;;;;;5052043;28;20056;-33
2024/02/16 04:37:46;;;;;;;6.07;4.85;;;22.30;46.80;;;;;;5062393;28;20104;-34
2024/02/16 04:40:12;;;;;;;5.85;5.25;;;22.30;46.80;;;;;;5051962;28;20033;-33
2024/02/16 04:42:40;;;;;;;5.40;4.90;;;22.30;46.70;;;;;;5062046;28;20060;-33
2024/02/16 04:45:07;;;;;;;5.57;5.07;;;22.30;46.60;;;;;;5059411;28;20030;-33
2024/02/16 04:47:33;;;;;;;;;;;22.30;46.50;;;;;;5062636;28;20028;-33
2024/02/16 04:49:59;;;;;;;6.38;5.25;;;22.30;46.70;;;;;;5058401;28;19923;-32
2024/02/16 04:52:26;;;;;;;6.38;5.65;;;22.30;46.80;;;;;;5060596;28;20065;-32
2024/02/16 04:54:52;;;;;;;5.10;4.65;;;22.30;46.90;;;;;;5061315;28;20032;-33
2024/02/16 04:57:18;;;;;;;5.40;4.90;;;22.30;46.80;;;;;;5061534;28;20040;-37
2024/02/16 04:59:44;;;;;;;5.50;4.95;;;22.30;46.60;;;;;;5058264;28;20045;-33
2024/02/16 05:02:10;;;;;;;5.47;4.97;;;22.30;46.60;;;;;;5052040;28;20030;-33
2024/02/16 05:04:37;;;;;;;5.40;4.88;;;22.30;46.50;;;;;;5062898;28;20051;-33
2024/02/16 05:07:04;;;;;;;6.65;5.03;;;22.30;46.60;;;;;;5081994;28;20048;-33
2024/02/16 05:09:32;;;;;;;5.55;4.90;;;22.30;46.80;;;;;;5083502;28;20035;-33
2024/02/16 05:11:58;;;;;;;4.97;4.57;;;22.30;46.80;;;;;;5083597;28;20040;-34
2024/02/16 05:14:25;;;;;;;5.60;5.10;;;22.30;46.70;;;;;;5085597;28;20089;-34
2024/02/16 05:16:51;;;;;;;4.43;4.03;;;22.30;46.60;;;;;;5084999;28;20088;-34
2024/02/16 05:19:18;;;;;;;5.80;5.30;;;22.30;46.50;;;;;;5085619;28;20040;-34
2024/02/16 05:21:44;;;;;;;5.28;4.78;;;22.30;46.50;;;;;;5085571;28;20036;-34
2024/02/16 05:24:10;;;;;;;5.55;5.05;;;22.30;46.60;;;;;;5077985;28;20033;-34
2024/02/16 05:26:37;;;;;;;5.60;5.10;;;22.30;46.80;;;;;;5077347;28;20035;-34
2024/02/16 05:29:04;;;;;;;5.35;4.85;;;22.30;46.80;;;;;;5082770;28;20032;-35
2024/02/16 05:31:31;;;;;;;5.68;5.13;;;22.30;46.70;;;;;;5085101;28;20028;-38
2024/02/16 05:33:57;;;;;;;5.53;5.03;;;22.30;46.60;;;;;;5084183;28;20063;-34
2024/02/16 05:36:30;;;;;;;5.68;5.18;;;22.30;46.50;;;;;;5077200;28;20059;-34
2024/02/16 05:38:59;;;;;;;5.45;4.95;;;22.30;46.50;;;;;;5081833;28;20059;-34
2024/02/16 05:41:25;;;;;;;5.55;5.05;;;22.20;46.60;;;;;;5084612;28;20029;-34
2024/02/16 05:43:51;;;;;;;5.72;5.22;;;22.30;46.80;;;;;;5085026;28;20431;-34
2024/02/16 05:46:18;;;;;;;5.72;5.22;;;22.30;46.70;;;;;;5082113;28;20063;-34
2024/02/16 05:48:44;;;;;;;5.47;4.97;;;22.30;46.70;;;;;;5084756;28;20023;-34
2024/02/16 05:51:12;;;;;;;5.65;5.15;;;22.30;46.60;;;;;;5078616;28;20039;-34
2024/02/16 05:53:40;;;;;;;5.63;5.13;;;22.30;46.50;;;;;;5075085;28;20029;-34
2024/02/16 05:56:07;;;;;;;5.88;5.20;;;22.20;46.60;;;;;;5078710;28;20059;-34
2024/02/16 05:58:33;;;;;;;4.10;3.78;;;22.30;46.70;;;;;;5081470;28;20020;-41
2024/02/16 06:00:59;;;;;;;5.07;4.67;;;22.30;46.80;;;;;;5080199;28;20062;-34
2024/02/16 06:03:26;;;;;;;5.35;4.95;;;22.30;46.70;;;;;;5077076;28;20029;-36
2024/02/16 06:05:53;;;;;;;;;;;22.30;46.60;;;;;;5077108;28;20052;-33
2024/02/16 06:08:19;;;;;;;5.50;5.00;;;22.30;46.50;;;;;;5081494;28;19942;-34
2024/02/16 06:10:51;;;;;;;5.07;4.68;;;22.20;46.40;;;;;;5071165;28;20036;-34
2024/02/16 06:13:19;;;;;;;5.40;4.90;;;22.20;46.60;;;;;;5079548;28;20036;-34
2024/02/16 06:15:45;;;;;;;5.47;4.97;;;22.20;46.70;;;;;;5065131;28;20035;-34
2024/02/16 06:18:11;;;;;;;5.68;5.18;;;22.30;47.30;;;;;;5078003;28;20545;-34
2024/02/16 06:20:37;;;;;;;5.82;5.32;;;22.30;46.60;;;;;;5083832;28;20028;-33
2024/02/16 06:23:03;;;;;;;5.28;4.82;;;22.30;46.50;;;;;;5083354;28;20040;-34
2024/02/16 06:25:30;;;;;;;5.22;4.72;;;22.20;46.50;;;;;;5079166;28;20053;-34
2024/02/16 06:27:56;;;;;;;5.85;5.10;;;22.20;46.50;;;;;;5080512;28;20077;-34
2024/02/16 06:30:22;;;;;;;5.32;4.82;;;22.20;46.60;;;;;;5083823;28;20029;-34
2024/02/16 06:32:48;;;;;;;5.40;4.90;;;22.30;46.70;;;;;;5083763;28;20044;-34
2024/02/16 06:35:14;;;;;;;5.45;4.95;;;22.30;46.70;;;;;;5082644;28;20033;-34
2024/02/16 06:37:40;;;;;;;5.93;5.25;;;22.30;46.60;;;;;;5083269;28;20034;-35
2024/02/16 06:40:10;;;;;;;5.82;5.32;;;22.20;46.50;;;;;;5082976;28;20024;-34
2024/02/16 06:42:56;;;;;;;5.20;4.80;;;22.20;46.50;;;;;;5075758;28;20021;-34
2024/02/16 06:45:22;;;;;;;5.43;4.93;;;22.20;46.60;;;;;;5010673;28;20136;-34
2024/02/16 06:47:49;;;;;;;5.13;4.63;;;22.20;46.70;;;;;;5004985;28;20045;-34
2024/02/16 06:50:15;;;;;;;5.07;4.68;;;22.20;46.60;;;;;;5002050;28;20030;-34
2024/02/16 06:52:41;;;;;;;5.55;5.05;;;22.20;46.60;;;;;;5021271;28;20065;-34
2024/02/16 06:55:08;;;;;;;5.43;4.93;;;22.20;46.50;;;;;;5008940;28;20026;-34
2024/02/16 06:57:34;;;;;;;5.35;4.85;;;22.20;46.40;;;;;;5020237;28;20041;-34
2024/02/16 07:00:00;;;;;;;5.40;4.90;;;22.20;46.60;;;;;;5018311;28;20034;-37
2024/02/16 07:02:26;;;;;;;5.45;4.95;;;22.20;46.70;;;;;;5014508;28;20060;-34
2024/02/16 07:04:52;;;;;;;5.75;5.25;;;22.30;46.70;;;;;;5018559;28;20034;-34
2024/02/16 07:07:18;;;;;;;5.45;4.95;;;22.30;46.60;;;;;;5020364;28;20037;-34
2024/02/16 07:09:44;;;;;;;5.88;5.38;;;22.20;46.50;;;;;;5021008;28;20545;-34
2024/02/16 07:12:12;;;;;;;5.57;5.07;;;22.20;46.40;;;;;;5020701;28;20129;-34
2024/02/16 07:14:39;;;;;;;5.57;5.07;;;22.20;46.50;;;;;;5021097;28;20026;-34
2024/02/16 07:17:09;;;;;;;5.90;5.40;;;22.20;46.60;;;;;;5020235;28;20046;-34
2024/02/16 07:19:36;;;;;;;5.32;4.82;;;22.20;46.60;;;;;;5020925;28;20120;-34
2024/02/16 07:22:02;;;;;;;5.30;4.80;;;22.20;46.60;;;;;;5038497;28;20055;-34
2024/02/16 07:24:28;;;;;;;5.63;5.13;;;22.20;46.50;;;;;;5082093;28;20017;-34
2024/02/16 07:26:54;;;;;;;5.93;5.20;;;22.20;46.40;;;;;;5080642;28;20031;-34
2024/02/16 07:29:20;;;;;;;5.30;4.90;;;22.20;46.40;;;;;;5075320;28;20261;-34
2024/02/16 07:31:47;;;;;;;5.28;4.82;;;22.20;46.50;;;;;;5082820;28;20024;-34
2024/02/16 07:34:13;;;;;;;5.32;4.82;;;22.20;46.70;;;;;;5058796;28;20113;-34
2024/02/16 07:36:39;;;;;;;5.20;4.80;;;22.20;46.60;;;;;;5083071;28;20035;-33
2024/02/16 07:39:05;;;;;;;6.13;5.53;;;22.20;46.60;;;;;;5064216;28;20044;-33
2024/02/16 07:41:31;;;;;;;5.05;4.60;;;22.20;46.40;;;;;;5078332;28;20489;-33
2024/02/16 07:43:57;;;;;;;5.10;4.68;;;22.20;46.30;;;;;;5076020;28;20033;-33
2024/02/16 07:46:23;;;;;;;5.93;5.32;;;22.20;46.50;;;;;;5082604;28;20039;-33
2024/02/16 07:48:50;;;;;;;5.93;5.38;;;22.20;46.60;;;;;;5082749;28;20028;-32
2024/02/16 07:51:16;;;;;;;5.65;5.15;;;22.20;46.60;;;;;;5082371;28;20029;-32
2024/02/16 07:53:44;;;;;;;5.35;4.95;;;22.20;46.60;;;;;;5076313;28;20028;-35
2024/02/16 07:56:10;;;;;;;5.72;5.22;;;22.20;46.50;;;;;;5081192;28;20972;-32
2024/02/16 07:58:36;;;;;;;5.60;5.10;;;22.20;46.40;;;;;;5082464;28;20059;-33
2024/02/16 08:01:02;;;;;;;6.43;5.13;;;22.20;46.40;;;;;;5070559;28;20029;-33
2024/02/16 08:03:29;;;;;;;5.63;5.07;;;22.20;46.50;;;;;;5071586;28;20025;-33
2024/02/16 08:05:56;;;;;;;5.22;4.72;;;22.20;46.60;;;;;;5069592;28;20048;-33
2024/02/16 08:08:25;;;;;;;5.65;5.13;;;22.20;46.60;;;;;;5053745;28;20025;-33
2024/02/16 08:10:51;;;;;;;5.35;4.82;;;22.20;46.50;;;;;;5061950;28;20061;-33
2024/02/16 08:13:18;;;;;;;5.28;4.82;;;22.20;46.50;;;;;;5053387;28;20089;-33
2024/02/16 08:15:44;;;;;;;5.22;4.72;;;22.20;46.30;;;;;;5062117;28;20050;-33
2024/02/16 08:18:11;;;;;;;5.65;5.15;;;22.20;46.50;;;;;;5061322;28;20036;-32
2024/02/16 08:20:37;;;;;;;;;;;22.20;46.60;;;;;;5062561;28;20086;-32
2024/02/16 08:23:03;;;;;;;6.13;5.53;;;22.20;46.60;;;;;;5060639;28;19912;-33
2024/02/16 08:25:33;;;;;;;5.50;5.00;;;22.20;46.50;;;;;;5057074;28;20036;-32
2024/02/16 08:28:00;;;;;;;5.50;5.00;;;22.20;46.40;;;;;;5056591;28;20052;-32
2024/02/16 08:30:26;;;;;;;6.60;5.38;;;22.20;46.40;;;;;;5062217;28;20029;-33
2024/02/16 08:32:52;;;;;;;5.70;5.20;;;22.20;46.40;;;;;;5061547;28;20194;-34
2024/02/16 08:35:18;;;;;;;6.25;5.65;;;22.20;46.60;;;;;;5058723;28;20037;-34
2024/02/16 08:37:45;;;;;;;5.50;5.00;;;22.20;46.60;;;;;;5057409;28;20037;-34
2024/02/16 08:40:14;;;;;;;5.47;4.85;;;22.20;46.50;;;;;;5051577;28;20025;-34
2024/02/16 08:42:42;;;;;;;5.65;5.15;;;22.20;46.40;;;;;;5060558;28;20059;-32
2024/02/16 08:45:09;;;;;;;5.63;5.13;;;22.20;46.30;;;;;;5060142;28;20033;-34
2024/02/16 08:47:35;;;;;;;5.72;5.22;;;22.20;46.30;;;;;;5059294;28;20052;-34
2024/02/16 08:50:01;;;;;;;5.43;4.93;;;22.20;46.50;;;;;;5064924;28;20044;-35
2024/02/16 08:52:27;;;;;;;4.90;4.50;;;22.20;46.60;;;;;;5058771;28;20079;-34
2024/02/16 08:54:53;;;;;;;6.27;5.30;;;22.20;46.60;;;;;;5057237;28;20021;-34
2024/02/16 08:57:19;;;;;;;5.85;5.35;;;22.20;46.40;;;;;;5062541;28;20801;-34
2024/02/16 08:59:46;;;;;;;6.22;5.70;;;22.20;46.40;;;;;;5055664;28;20116;-35
2024/02/16 09:02:12;;;;;;;5.72;5.03;;;22.20;46.20;;;;;;5058794;28;20036;-34
2024/02/16 09:04:38;;;;;;;5.80;5.30;;;22.20;46.40;;;;;;5063557;28;20032;-33
2024/02/16 09:07:04;;;;;;;6.10;5.50;;;22.20;46.60;;;;;;5081014;28;20732;-34
2024/02/16 09:09:31;;;;;;;5.75;5.25;;;22.20;46.60;;;;;;5085171;28;20050;-38
2024/02/16 09:11:57;;;;;;;5.35;4.85;;;22.20;46.60;;;;;;5084679;28;20441;-34
2024/02/16 09:14:23;;;;;;;6.03;5.47;;;22.20;46.40;;;;;;5085547;28;20084;-34
2024/02/16 09:16:52;;;;;;;5.93;5.38;;;22.20;46.40;;;;;;5085958;28;20033;-34
2024/02/16 09:19:22;;;;;;;5.18;4.70;;;22.20;46.40;;;;;;5084968;28;20024;-34
2024/02/16 09:21:49;;;;;;;5.43;4.95;;;22.20;46.60;;;;;;5085274;28;20027;-33
2024/02/16 09:24:17;;;;;;;5.30;4.80;;;22.20;46.60;;;;;;5084843;28;20032;-33
2024/02/16 09:26:46;;;;;;;5.57;5.07;;;22.20;46.60;;;;;;5085324;28;20059;-34
2024/02/16 09:29:13;;;;;;;5.90;5.28;;;22.20;46.50;;;;;;5079836;28;20040;-34
2024/02/16 09:31:41;;;;;;;5.97;5.38;;;22.20;46.40;;;;;;5081964;28;20044;-34
2024/02/16 09:34:06;;;;;;;;;;;22.20;46.50;;;;;;5080277;28;20543;-34
2024/02/16 09:36:33;;;;;;;5.53;5.03;;;22.20;46.60;;;;;;5083239;28;19916;-34
2024/02/16 09:38:59;;;;;;;5.88;5.38;;;22.20;46.70;;;;;;5082494;28;20032;-34
2024/02/16 09:41:25;;;;;;;5.60;5.10;;;22.20;46.60;;;;;;5081813;28;20039;-33
2024/02/16 09:43:53;;;;;;;5.90;5.40;;;22.20;46.50;;;;;;5085118;28;20027;-39
2024/02/16 09:46:21;;;;;;;5.55;5.05;;;22.20;46.40;;;;;;5059228;28;20059;-34
2024/02/16 09:48:48;;;;;;;;;;;22.20;46.40;;;;;;5067834;28;20034;-34
2024/02/16 09:51:15;;;;;;;5.28;4.78;;;22.20;46.60;;;;;;5063857;28;19928;-34
2024/02/16 09:53:42;;;;;;;5.50;5.00;;;22.20;46.70;;;;;;5068880;28;20040;-35
2024/02/16 09:56:11;;;;;;;5.57;5.07;;;22.20;46.60;;;;;;5071714;28;20024;-34
2024/02/16 09:58:37;;;;;;;6.13;5.63;;;22.20;46.50;;;;;;5076081;28;20117;-38
2024/02/16 10:01:04;;;;;;;6.60;6.00;;;22.20;46.50;;;;;;5081916;28;20047;-34
2024/02/16 10:03:32;;;;;;;5.65;5.15;;;22.20;46.40;;;;;;5085181;28;20047;-34
2024/02/16 10:06:06;;;;;;;5.57;5.07;;;22.20;46.60;;;;;;5073242;28;20044;-34
2024/02/16 10:08:34;;;;;;;6.03;5.00;;;22.20;46.70;;;;;;5058844;28;20453;-34
2024/02/16 10:11:05;;;;;;;6.38;5.78;;;22.20;46.70;;;;;;5064191;28;20033;-34
2024/02/16 10:13:32;;;;;;;5.60;5.10;;;22.20;46.60;;;;;;5056022;28;20079;-33
2024/02/16 10:16:08;;;;;;;5.90;5.40;;;22.20;46.50;;;;;;5063227;28;20033;-34
2024/02/16 10:18:37;;;;;;;5.35;4.85;;;22.10;46.40;;;;;;5062691;28;20033;-34
2024/02/16 10:21:04;;;;;;;6.40;5.80;;;22.20;46.60;;;;;;5063928;28;20031;-34
2024/02/16 10:23:30;;;;;;;5.68;5.13;;;22.20;46.70;;;;;;5038574;28;20055;-34
2024/02/16 10:25:59;;;;;;;5.65;5.13;;;22.20;46.70;;;;;;5061345;28;20409;-34
2024/02/16 10:28:28;;;;;;;6.15;5.30;;;22.20;46.60;;;;;;5060478;28;20554;-34
2024/02/16 10:30:59;;;;;;;5.53;4.72;;;22.20;46.50;;;;;;5055304;28;20045;-34
2024/02/16 10:33:27;;;;;;;6.10;5.50;;;22.20;46.40;;;;;;5063499;28;20040;-34
2024/02/16 10:35:55;;;;;;;5.50;4.80;;;22.20;46.50;;;;;;5063347;28;20025;-33
2024/02/16 10:38:22;;;;;;;6.07;5.47;;;22.20;46.60;;;;;;5044931;28;20017;-32
2024/02/16 10:40:48;;;;;;;5.88;5.38;;;22.20;46.70;;;;;;5045958;28;20040;-33
2024/02/16 10:43:14;;;;;;;5.65;5.15;;;22.20;46.60;;;;;;5040552;28;20040;-32
2024/02/16 10:45:40;;;;;;;5.65;5.15;;;22.20;46.50;;;;;;5064110;28;20052;-32
2024/02/16 10:48:10;;;;;;;6.50;5.80;;;22.20;46.40;;;;;;5062098;28;20019;-32
2024/02/16 10:50:36;;;;;;;5.95;5.43;;;22.20;46.40;;;;;;5058121;28;20029;-32
2024/02/16 10:53:13;;;;;;;5.10;4.63;;;22.20;46.60;;;;;;5063377;28;20075;-32
2024/02/16 10:55:39;;;;;;;5.65;5.15;;;22.20;46.70;;;;;;5062091;28;20111;-32
2024/02/16 10:58:08;;;;;;;5.50;5.00;;;22.20;46.70;;;;;;5061341;28;20037;-32
2024/02/16 11:00:34;;;;;;;5.30;4.82;;;22.20;46.60;;;;;;5061535;28;20219;-33
2024/02/16 11:03:03;;;;;;;7.03;5.33;;;22.20;46.50;;;;;;5063419;28;20040;-33
2024/02/16 11:05:47;;;;;;;5.75;5.25;;;22.20;46.40;;;;;;5069462;28;20289;-32
2024/02/16 11:08:21;;;;;;;5.63;5.10;;;22.20;46.50;;;;;;5083058;28;20063;-33
2024/02/16 11:11:00;;;;;;;5.85;5.25;;;22.20;46.70;;;;;;5083446;28;20400;-32
2024/02/16 11:13:27;;;;;;;5.88;5.30;;;22.20;46.70;;;;;;5072326;28;20047;-33
2024/02/16 11:15:57;;;;;;;;;;;22.20;46.60;;;;;;5083601;28;20025;-32
2024/02/16 11:18:23;;;;;;;5.60;5.03;;;22.20;46.50;;;;;;5076232;28;20357;-37
2024/02/16 11:20:50;;;;;;;5.72;5.22;;;22.20;46.40;;;;;;5079927;28;20020;-32
2024/02/16 11:23:17;;;;;;;5.63;5.13;;;22.10;46.40;;;;;;5082559;28;20021;-32
2024/02/16 11:25:53;;;;;;;5.88;5.38;;;22.20;46.70;;;;;;5083110;28;20033;-33
2024/02/16 11:28:19;;;;;;;5.90;5.40;;;22.20;46.70;;;;;;5083315;28;20027;-32
2024/02/16 11:30:45;;;;;;;5.45;4.95;;;22.20;47.20;;;;;;5065482;28;20059;-32
2024/02/16 11:33:11;;;;;;;6.00;5.43;;;22.20;46.50;;;;;;5081663;28;20041;-32
2024/02/16 11:35:38;;;;;;;5.43;4.93;;;22.20;46.40;;;;;;5081141;28;20056;-32
2024/02/16 11:38:05;;;;;;;5.43;4.93;;;22.20;46.50;;;;;;5080925;28;20029;-32
2024/02/16 11:40:31;;;;;;;5.90;5.40;;;22.20;46.70;;;;;;5082801;28;20060;-37
2024/02/16 11:42:59;;;;;;;5.85;5.35;;;22.20;46.70;;;;;;5082334;28;20024;-34
2024/02/16 11:45:26;;;;;;;5.65;5.13;;;22.20;46.60;;;;;;5077725;28;20048;-34
2024/02/16 11:48:03;;;;;;;5.47;4.97;;;22.20;46.50;;;;;;5080918;28;20025;-34
2024/02/16 11:50:29;;;;;;;5.53;5.00;;;22.20;46.40;;;;;;5057990;28;20731;-33
2024/02/16 11:52:55;;;;;;;5.67;5.03;;;22.20;46.50;;;;;;5081969;28;20040;-33
2024/02/16 11:55:21;;;;;;;5.30;4.80;;;22.20;46.70;;;;;;5082329;28;20024;-33
2024/02/16 11:57:50;;;;;;;5.60;5.10;;;22.20;46.70;;;;;;5075732;28;20101;-33
2024/02/16 12:00:16;;;;;;;5.70;5.20;;;22.20;46.60;;;;;;5076633;28;20028;-33
2024/02/16 12:02:42;;;;;;;5.70;5.05;;;22.20;46.60;;;;;;5080082;28;20040;-33
2024/02/16 12:05:09;;;;;;;5.82;5.32;;;22.20;46.50;;;;;;5038952;28;20048;-33
2024/02/16 12:07:39;;;;;;;5.10;4.60;;;22.20;46.40;;;;;;5077839;28;20078;-33
2024/02/16 12:10:07;;;;;;;5.72;5.07;;;22.20;46.60;;;;;;5080158;28;20032;-34
2024/02/16 12:12:33;;;;;;;5.60;5.10;;;22.20;46.70;;;;;;5081032;28;20040;-33
2024/02/16 12:14:59;;;;;;;5.83;5.33;;;22.20;46.70;;;;;;5081727;28;20044;-34
2024/02/16 12:17:25;;;;;;;5.43;4.93;;;22.20;46.60;;;;;;5071672;28;20036;-33
2024/02/16 12:19:52;;;;;;;5.72;5.22;;;22.20;46.50;;;;;;5072073;28;20023;-34
2024/02/16 12:22:21;;;;;;;5.65;4.93;;;22.20;46.50;;;;;;5081012;28;20029;-33
2024/02/16 12:24:50;;;;;;;5.45;4.95;;;22.20;46.50;;;;;;5077195;28;20016;-33
2024/02/16 12:27:17;;;;;;;5.35;4.85;;;22.20;46.70;;;;;;5081183;28;20113;-33
2024/02/16 12:29:43;;;;;;;5.85;5.30;;;22.20;46.70;;;;;;5080840;28;20054;-33
2024/02/16 12:32:09;;;;;;;5.80;5.25;;;22.20;46.60;;;;;;5081102;28;20067;-33
2024/02/16 12:34:37;;;;;;;5.75;5.20;;;22.20;46.50;;;;;;5078672;28;20046;-34
2024/02/16 12:37:11;;;;;;;5.97;5.38;;;22.20;46.50;;;;;;5081188;28;20037;-33
2024/02/16 12:39:37;;;;;;;7.18;5.75;;;22.20;46.50;;;;;;5076420;28;20043;-34
2024/02/16 12:42:04;;;;;;;7.15;5.88;;;22.20;46.60;;;;;;5076610;28;20040;-34
2024/02/16 12:44:30;;;;;;;7.82;5.95;;;22.20;46.80;;;;;;5079614;28;20677;-34